U28191 / G-EZOZ 7700 Squawk Report (17th of June, 2018)

Aircraft A320 Reg No. G-EZOZ Age 2 years old
Model A320 Jet engines 2 First flight 17-12-15
Registered 23-12-15 Rollout 12-15 Delivered 23-12-15
Construction No. 6918 Line No. N/A Series 214(SL)
ADSHEX 406F01 Airline name EasyJet Owner N/A
Airfield based Luton~Beds~G First tracked 2015-12-23 15:25:06

Flight history for G-EZOZ

Route Flight No Date Playback
Edinburgh (EDI) - Malpensa (MXP) U22684 2018-07-16 11:54:00
Malpensa (MXP) - Edinburgh (EDI) U22683 2018-07-16 08:14:00
Luton (LTN) - Malpensa (MXP) U22285 2018-07-15 20:15:00
Malpensa (MXP) - Luton (LTN) U22286 2018-07-15 17:16:00
Ioannis Kapodistrias Intl (CFU) - Malpensa (MXP) U22948 2018-07-15 14:44:00
Malpensa (MXP) - Ioannis Kapodistrias Intl (CFU) U22947 2018-07-15 11:50:00
Catania Fontanarossa (CTA) - Malpensa (MXP) U22846 2018-07-15 09:09:00
Malpensa (MXP) - Catania Fontanarossa (CTA) U22843 2018-07-15 06:45:00
Kastrup (CPH) - Malpensa (MXP) U22656 2018-07-14 21:58:00
Malpensa (MXP) - Kastrup (CPH) U22655 2018-07-14 20:07:00
Olbia Costa Smeralda (OLB) - Malpensa (MXP) U22910 2018-07-13 20:37:00
Malpensa (MXP) - Olbia Costa Smeralda (OLB) U22909 2018-07-13 19:08:00
Franz Josef Strauss (MUC) - Malpensa (MXP) U22556 2018-07-13 17:12:00
Malpensa (MXP) - Franz Josef Strauss (MUC) U22555 2018-07-13 16:12:00
Olbia Costa Smeralda (OLB) - Malpensa (MXP) U22906 2018-07-13 12:40:00
Malpensa (MXP) - Olbia Costa Smeralda (OLB) U22905 2018-07-13 11:03:00
Luton (LTN) - Malpensa (MXP) U22283 2018-07-13 08:19:00
Palermo (PMO) - Luton (LTN) U22454 2018-07-13 06:46:00
Luton (LTN) - Palermo (PMO) U22453 2018-07-12 16:52:00
Faro (FAO) - Luton (LTN) U22016 2018-07-12 13:10:00
Time Lat Lon Altitude Heading Speed Vertical Rate
2018-06-17 09:36:25 GMT 48.998245 2.600450 150 266 129 -640
2018-06-17 09:36:19 GMT 48.998512 2.605856 150 266 129 -640
2018-06-17 09:36:11 GMT 48.998932 2.613056 300 266 129 -704
2018-06-17 09:36:03 GMT 48.999397 2.621468 400 266 131 -832
2018-06-17 09:35:52 GMT 48.999847 2.630733 525 266 133 -704
2018-06-17 09:35:40 GMT 49.000420 2.641706 675 266 131 -640
2018-06-17 09:35:30 GMT 49.000946 2.650663 775 266 127 -640
2018-06-17 09:35:17 GMT 49.001495 2.662142 925 266 127 -768
2018-06-17 09:35:08 GMT 49.001911 2.669895 1,025 266 128 -704
2018-06-17 09:34:57 GMT 49.002457 2.680030 1,150 266 139 -448
2018-06-17 09:34:47 GMT 49.002934 2.689048 1,275 266 139 -448
2018-06-17 09:34:38 GMT 49.003353 2.697216 1,350 265 132 -768
2018-06-17 09:34:27 GMT 49.003922 2.707566 1,500 266 135 -832
2018-06-17 09:34:18 GMT 49.004421 2.717454 1,625 266 141 -640
2018-06-17 09:34:05 GMT 49.005020 2.729469 1,775 266 146 -704
2018-06-17 09:33:57 GMT 49.005447 2.737547 1,875 266 154 -896
2018-06-17 09:33:54 GMT 49.005634 2.741017 1,900 266 152 -768
2018-06-17 09:33:45 GMT 49.006119 2.750737 2,050 266 156 -896
2018-06-17 09:33:41 GMT 49.006424 2.756267 2,050 266 156 -896
2018-06-17 09:33:33 GMT 49.006798 2.763712 2,200 266 158 -960
2018-06-17 09:33:24 GMT 49.007309 2.773625 2,350 266 159 -1024
2018-06-17 09:33:16 GMT 49.007774 2.782649 2,475 266 160 -896
2018-06-17 09:33:12 GMT 49.008041 2.787006 2,525 266 161 -896
2018-06-17 09:33:05 GMT 49.008427 2.794647 2,625 266 162 -832
2018-06-17 09:33:02 GMT 49.008614 2.797900 2,675 266 167 -512
2018-06-17 09:32:52 GMT 49.009216 2.809609 2,800 266 166 -640
2018-06-17 09:32:44 GMT 49.009689 2.818909 2,800 266 166 -640
2018-06-17 09:32:41 GMT 49.009872 2.822571 2,850 266 168 -128
2018-06-17 09:32:38 GMT 49.010056 2.826088 2,850 266 169 -192
2018-06-17 09:32:30 GMT 49.010559 2.835459 2,850 266 174 0
2018-06-17 09:32:20 GMT 49.011173 2.847916 2,825 266 183 64
2018-06-17 09:32:16 GMT 49.011429 2.853417 2,850 266 185 -128
2018-06-17 09:32:10 GMT 49.011871 2.862517 2,875 266 186 -384
2018-06-17 09:32:06 GMT 49.012058 2.866203 2,900 267 185 -448
2018-06-17 09:32:00 GMT 49.012482 2.874897 2,950 266 185 -384
2018-06-17 09:31:57 GMT 49.012665 2.878201 2,975 267 185 -448
2018-06-17 09:31:50 GMT 49.013123 2.888418 3,025 266 184 -512
2018-06-17 09:31:45 GMT 49.013363 2.893741 3,075 267 185 -448
2018-06-17 09:31:38 GMT 49.013779 2.903065 3,125 267 189 -576
2018-06-17 09:31:28 GMT 49.014294 2.916003 3,300 267 191 -576
2018-06-17 09:31:17 GMT 49.014805 2.930675 3,300 274 193 -512
2018-06-17 09:31:06 GMT 49.013306 2.945533 3,400 297 196 -512
2018-06-17 09:30:56 GMT 49.008545 2.958139 3,500 305 196 -512
2018-06-17 09:30:44 GMT 49.002914 2.970886 3,600 305 196 -448
2018-06-17 09:30:34 GMT 48.996834 2.984523 3,675 305 197 -448
2018-06-17 09:30:23 GMT 48.991791 2.995676 3,750 305 198 -512
2018-06-17 09:30:13 GMT 48.986710 3.006873 3,825 305 206 -448
2018-06-17 09:30:02 GMT 48.980850 3.019902 3,925 305 212 -576
2018-06-17 09:29:51 GMT 48.974762 3.033353 4,050 305 215 -832
2018-06-17 09:29:40 GMT 48.968487 3.047333 4,200 305 219 -704
2018-06-17 09:29:32 GMT 48.963867 3.057580 4,300 305 226 -768
2018-06-17 09:29:29 GMT 48.962063 3.061499 4,425 305 223 -768
2018-06-17 09:29:22 GMT 48.958012 3.070390 4,425 305 226 -768
2018-06-17 09:29:19 GMT 48.956196 3.074293 4,525 305 227 -768
2018-06-17 09:29:12 GMT 48.952145 3.083255 4,575 305 230 -768
2018-06-17 09:29:09 GMT 48.949997 3.088003 4,625 305 230 -768
2018-06-17 09:29:06 GMT 48.948441 3.091454 4,625 305 230 -768
2018-06-17 09:28:58 GMT 48.943485 3.102337 4,825 305 237 -768
2018-06-17 09:28:51 GMT 48.938828 3.112723 4,900 305 241 -768
2018-06-17 09:28:48 GMT 48.936924 3.116937 4,900 306 247 -704
2018-06-17 09:28:38 GMT 48.929707 3.132549 5,050 308 251 -768
2018-06-17 09:28:32 GMT 48.926331 3.139555 5,100 313 256 -832
2018-06-17 09:28:27 GMT 48.922539 3.146427 5,250 319 263 -896
2018-06-17 09:28:21 GMT 48.917557 3.154016 5,300 320 264 -896
2018-06-17 09:28:16 GMT 48.912964 3.160048 5,300 320 265 -960
2018-06-17 09:28:11 GMT 48.908249 3.166159 5,375 320 268 -1152
2018-06-17 09:28:06 GMT 48.902615 3.173531 5,625 320 268 -1344
2018-06-17 09:28:01 GMT 48.898052 3.179386 5,600 320 268 -1344
2018-06-17 09:27:58 GMT 48.896713 3.181176 5,625 319 268 -1472
2018-06-17 09:27:54 GMT 48.892933 3.186180 5,725 319 268 -1472
2018-06-17 09:27:49 GMT 48.888382 3.192233 6,000 319 267 -1536
2018-06-17 09:27:44 GMT 48.882843 3.199768 6,000 318 268 -1600
2018-06-17 09:27:37 GMT 48.876480 3.208712 6,175 317 268 -1664
2018-06-17 09:27:32 GMT 48.872822 3.213935 6,300 317 268 -1664
2018-06-17 09:27:29 GMT 48.869980 3.217910 6,375 317 266 -1536
2018-06-17 09:27:26 GMT 48.867325 3.221670 6,450 317 266 -1536
2018-06-17 09:27:22 GMT 48.863663 3.226882 6,575 318 261 -1280
2018-06-17 09:27:19 GMT 48.860550 3.231248 6,650 318 256 -896
2018-06-17 09:27:13 GMT 48.854198 3.240244 6,750 318 251 -832
2018-06-17 09:27:09 GMT 48.852036 3.243220 6,800 318 247 -832
2018-06-17 09:27:05 GMT 48.848419 3.248291 6,850 318 246 -832
2018-06-17 09:27:02 GMT 48.845947 3.251812 6,900 318 244 -1024
2018-06-17 09:26:58 GMT 48.843307 3.255495 6,950 318 244 -1216
2018-06-17 09:26:55 GMT 48.840050 3.259976 7,025 318 245 -1152
2018-06-17 09:26:50 GMT 48.836601 3.264746 7,100 317 270 -768
2018-06-17 09:26:46 GMT 48.832581 3.270405 7,125 318 254 -704
2018-06-17 09:26:40 GMT 48.827572 3.277395 7,200 318 254 -704
2018-06-17 09:26:37 GMT 48.825195 3.280792 7,225 318 256 -640
2018-06-17 09:26:30 GMT 48.818821 3.289755 7,300 318 261 -576
2018-06-17 09:26:23 GMT 48.812759 3.298293 7,350 317 264 -512
2018-06-17 09:26:18 GMT 48.808090 3.304913 7,400 317 268 -512
2018-06-17 09:26:15 GMT 48.805412 3.308764 7,425 317 270 -704
2018-06-17 09:26:09 GMT 48.800034 3.316322 7,525 317 272 -1536
2018-06-17 09:26:01 GMT 48.792519 3.326906 7,775 318 271 -1856
2018-06-17 09:25:58 GMT 48.788933 3.331893 7,900 318 271 -1792
2018-06-17 09:25:52 GMT 48.784103 3.338647 8,050 318 271 -1664
2018-06-17 09:25:48 GMT 48.780396 3.343788 8,375 318 271 -1344
2018-06-17 09:25:40 GMT 48.772980 3.354070 8,325 318 274 -1216
2018-06-17 09:25:37 GMT 48.770172 3.358058 8,375 318 274 -1216
2018-06-17 09:25:32 GMT 48.765564 3.364418 8,475 318 276 -1280
2018-06-17 09:25:26 GMT 48.759979 3.372169 8,625 318 277 -1408
2018-06-17 09:25:23 GMT 48.756866 3.376535 8,700 318 276 -1856
2018-06-17 09:25:17 GMT 48.751785 3.383578 8,900 318 276 -1856
2018-06-17 09:25:14 GMT 48.749405 3.386888 9,075 318 278 -1024
2018-06-17 09:25:06 GMT 48.741123 3.398389 9,200 318 276 -1344
2018-06-17 09:25:03 GMT 48.738331 3.402365 9,325 318 278 -1024
2018-06-17 09:24:59 GMT 48.734467 3.407713 9,325 318 278 -1088
2018-06-17 09:24:54 GMT 48.729954 3.414074 9,400 318 280 -960
2018-06-17 09:24:44 GMT 48.720383 3.427594 9,575 317 285 -896
2018-06-17 09:24:31 GMT 48.708214 3.444720 9,750 318 290 -832
2018-06-17 09:24:22 GMT 48.699039 3.457585 9,850 318 297 -640
2018-06-17 09:24:13 GMT 48.688892 3.471824 9,975 317 304 -768
2018-06-17 09:24:06 GMT 48.682709 3.480553 10,000 317 308 -768
2018-06-17 09:24:01 GMT 48.677532 3.487870 10,125 317 312 -832
2018-06-17 09:23:57 GMT 48.673344 3.493797 10,175 317 315 -832
2018-06-17 09:23:51 GMT 48.666828 3.503049 10,250 317 321 -832
2018-06-17 09:23:41 GMT 48.656204 3.518090 10,450 318 329 -768
2018-06-17 09:23:35 GMT 48.647919 3.529640 10,625 318 334 -704
2018-06-17 09:23:30 GMT 48.643738 3.535357 10,575 321 342 -768
2018-06-17 09:23:27 GMT 48.639732 3.540633 10,575 321 342 -768
2018-06-17 09:23:19 GMT 48.629745 3.551612 10,700 331 351 -1088
2018-06-17 09:23:08 GMT 48.612762 3.562880 10,925 345 364 -1280
2018-06-17 09:22:58 GMT 48.597153 3.568373 11,075 348 377 -960
2018-06-17 09:22:51 GMT 48.584290 3.572725 11,175 348 390 -896
2018-06-17 09:22:46 GMT 48.575912 3.575486 11,275 348 386 -1024
2018-06-17 09:22:41 GMT 48.567020 3.578507 11,375 348 390 -896
2018-06-17 09:22:37 GMT 48.559891 3.580839 11,425 348 390 -896
2018-06-17 09:22:26 GMT 48.541214 3.587107 11,650 348 391 -896
2018-06-17 09:22:16 GMT 48.523445 3.593035 11,800 348 391 -896
2018-06-17 09:22:08 GMT 48.509262 3.597741 11,875 348 392 -960
2018-06-17 09:22:02 GMT 48.498539 3.601347 11,950 348 391 -896
2018-06-17 09:21:53 GMT 48.482990 3.606551 12,075 348 392 -832
2018-06-17 09:21:43 GMT 48.463257 3.613234 12,225 348 392 -832
2018-06-17 09:21:31 GMT 48.443436 3.619854 12,425 348 391 -896
2018-06-17 09:21:19 GMT 48.422241 3.626967 12,575 348 391 -896
2018-06-17 09:21:15 GMT 48.415512 3.629221 12,625 348 392 -960
2018-06-17 09:21:09 GMT 48.404644 3.632861 12,725 348 392 -960
2018-06-17 09:21:01 GMT 48.390305 3.637631 12,975 348 393 -896
2018-06-17 09:20:49 GMT 48.369278 3.644644 13,000 348 393 -768
2018-06-17 09:20:39 GMT 48.351807 3.650424 13,175 348 393 -768
2018-06-17 09:20:30 GMT 48.335724 3.655771 13,375 348 394 -832
2018-06-17 09:20:22 GMT 48.321671 3.660490 13,375 348 394 -832
2018-06-17 09:20:17 GMT 48.313168 3.663290 13,425 348 396 -832
2018-06-17 09:20:07 GMT 48.294800 3.669293 13,600 348 398 -896
2018-06-17 09:19:53 GMT 48.269760 3.677532 13,775 348 400 -896
2018-06-17 09:19:36 GMT 48.237011 3.688298 14,050 348 403 -896
2018-06-17 09:19:23 GMT 48.212990 3.696249 14,500 348 400 -1024
2018-06-17 09:19:00 GMT 48.173141 3.709404 14,625 348 400 -1024
2018-06-17 09:18:50 GMT 48.155045 3.715370 14,775 348 396 -832
2018-06-17 09:18:41 GMT 48.139343 3.720703 14,850 347 391 -768
2018-06-17 09:18:36 GMT 48.130497 3.723661 14,975 347 391 -768
2018-06-17 09:18:33 GMT 48.125473 3.725395 15,000 347 391 -896
2018-06-17 09:18:23 GMT 48.105965 3.732182 15,200 347 392 -960
2018-06-17 09:17:57 GMT 48.060516 3.741188 15,775 0 408 -1408
2018-06-17 09:17:54 GMT 48.055023 3.741257 15,850 0 408 -1344
2018-06-17 09:17:48 GMT 48.041656 3.741531 16,000 0 409 -1344
2018-06-17 09:17:37 GMT 48.019318 3.741943 16,275 0 410 -1280
2018-06-17 09:17:31 GMT 48.011581 3.742081 16,350 0 410 -1216
2018-06-17 09:17:27 GMT 48.003876 3.742183 16,425 0 411 -1408
2018-06-17 09:17:11 GMT 47.973312 3.742767 16,850 0 418 -1664
2018-06-17 09:17:03 GMT 47.957603 3.743028 17,075 0 417 -1664
2018-06-17 09:16:52 GMT 47.936234 3.743454 17,400 0 419 -1728
2018-06-17 09:16:43 GMT 47.918640 3.743803 17,675 0 421 -1728
2018-06-17 09:16:33 GMT 47.899475 3.744209 17,950 0 420 -1728
2018-06-17 09:16:28 GMT 47.889771 3.744415 18,100 0 420 -1920
2018-06-17 09:16:23 GMT 47.880371 3.744648 18,275 0 420 -2240
2018-06-17 09:16:13 GMT 47.860657 3.745033 18,675 0 420 -2496
2018-06-17 09:16:08 GMT 47.851231 3.745282 18,900 0 421 -3200
2018-06-17 09:16:03 GMT 47.840057 3.745514 19,225 0 418 -4096
2018-06-17 09:15:56 GMT 47.826794 3.745774 19,675 0 418 -4224
2018-06-17 09:15:50 GMT 47.814789 3.746063 20,150 0 412 -4288
2018-06-17 09:15:47 GMT 47.809147 3.746197 20,375 0 411 -4096
2018-06-17 09:15:42 GMT 47.799774 3.746338 20,675 0 411 -3392
2018-06-17 09:15:36 GMT 47.788147 3.746544 20,925 0 413 -2496
2018-06-17 09:15:29 GMT 47.774139 3.746760 21,225 0 414 -2304
2018-06-17 09:15:25 GMT 47.767437 3.746901 21,375 0 416 -2240
2018-06-17 09:15:20 GMT 47.757523 3.747025 21,550 0 417 -2176
2018-06-17 09:15:17 GMT 47.751842 3.747113 21,675 0 419 -2368
2018-06-17 09:15:14 GMT 47.747559 3.747183 21,800 0 420 -2496
2018-06-17 09:15:08 GMT 47.735924 3.747394 22,025 0 421 -2688
2018-06-17 09:15:04 GMT 47.726486 3.747505 22,250 0 421 -3008
2018-06-17 09:14:59 GMT 47.716415 3.747643 22,525 0 420 -3520
2018-06-17 09:14:52 GMT 47.703232 3.747780 22,975 0 417 -4096
2018-06-17 09:14:48 GMT 47.695606 3.747887 23,250 0 413 -4480
2018-06-17 09:14:42 GMT 47.685608 3.747986 24,025 0 398 -5248
2018-06-17 09:14:35 GMT 47.672283 3.748099 24,175 0 405 -4672
2018-06-17 09:14:30 GMT 47.662857 3.748192 24,600 0 398 -5248
2018-06-17 09:14:19 GMT 47.642944 3.748192 25,425 0 391 -3712
2018-06-17 09:14:13 GMT 47.632278 3.748192 25,675 0 390 -2240
2018-06-17 09:14:09 GMT 47.623444 3.748192 25,975 5 397 0
2018-06-17 09:14:02 GMT 47.610855 3.747986 26,000 4 394 0
2018-06-17 09:13:59 GMT 47.605591 3.747711 26,000 5 397 0
2018-06-17 09:13:52 GMT 47.593369 3.745926 26,000 9 402 64
2018-06-17 09:13:48 GMT 47.586044 3.744278 26,000 12 406 0
2018-06-17 09:13:38 GMT 47.565445 3.736862 26,025 22 426 -448
2018-06-17 09:13:26 GMT 47.545383 3.725844 34,950 31 444 -1536
2018-06-17 09:13:19 GMT 47.532906 3.716830 26,125 31 444 -1536
2018-06-17 09:13:13 GMT 47.521919 3.707534 26,500 34 448 -1856
2018-06-17 09:13:08 GMT 47.513397 3.699097 26,500 34 448 -1856
2018-06-17 09:13:03 GMT 47.504745 3.689415 26,725 39 454 -2496
2018-06-17 09:12:58 GMT 47.498272 3.681265 29,175 69 469 -3456
2018-06-17 09:12:54 GMT 47.490692 3.670670 27,150 46 459 -3136
2018-06-17 09:12:51 GMT 47.487659 3.666053 27,275 47 460 -3264
2018-06-17 09:12:43 GMT 47.475647 3.645278 27,800 53 461 -4032
2018-06-17 09:12:38 GMT 47.469040 3.631943 28,150 63 466 -2880
2018-06-17 09:12:33 GMT 47.462173 3.616013 28,575 60 462 -3840
2018-06-17 09:12:28 GMT 47.457870 3.604752 28,800 63 466 -2880
2018-06-17 09:12:20 GMT 47.450558 3.582247 29,200 67 468 -3264
2018-06-17 09:12:16 GMT 47.446598 3.567458 30,275 69 469 -3456
2018-06-17 09:12:09 GMT 47.442642 3.549500 29,875 75 469 -4160
2018-06-17 09:12:03 GMT 47.439423 3.530731 30,275 83 476 -2560
2018-06-17 09:11:58 GMT 47.437382 3.514850 30,525 81 472 -2624
2018-06-17 09:11:54 GMT 47.436172 3.502579 31,425 83 476 -2560
2018-06-17 09:11:48 GMT 47.434635 3.484145 30,925 83 475 -2496
2018-06-17 09:11:37 GMT 47.431778 3.448540 31,375 83 478 -2624
2018-06-17 09:11:29 GMT 47.429718 3.419701 31,800 85 480 -3200
2018-06-17 09:11:26 GMT 47.429352 3.412834 31,925 87 480 -3392
2018-06-17 09:11:19 GMT 47.428864 3.390127 32,975 89 480 -3584
2018-06-17 09:11:15 GMT 47.429096 3.377099 32,575 94 480 -3712
2018-06-17 09:11:07 GMT 47.430771 3.350478 33,150 99 476 -4736
2018-06-17 09:11:02 GMT 47.432495 3.335125 33,500 102 474 -4160
2018-06-17 09:10:55 GMT 47.436031 3.312167 33,950 106 475 -2688
2018-06-17 09:10:51 GMT 47.438454 3.299772 34,125 110 477 -2496
2018-06-17 09:10:45 GMT 47.442764 3.281548 34,350 112 478 -2688
2018-06-17 09:10:40 GMT 47.447857 3.263362 34,650 115 477 -3200
2018-06-17 09:10:31 GMT 47.455719 3.240623 35,025 118 477 -3008
2018-06-17 09:10:26 GMT 47.461494 3.226178 35,275 126 476 -3072
2018-06-17 09:10:22 GMT 47.466385 3.215218 35,500 126 476 -3072
2018-06-17 09:10:17 GMT 47.472996 3.201951 35,650 126 476 -3072
2018-06-17 09:10:13 GMT 47.478424 3.192009 35,975 131 472 -3136
2018-06-17 09:10:08 GMT 47.485470 3.180401 36,800 134 469 -3072
2018-06-17 09:10:03 GMT 47.493073 3.169144 36,500 146 457 -832
2018-06-17 09:09:58 GMT 47.501114 3.158428 36,650 141 462 -2432
2018-06-17 09:09:51 GMT 47.512703 3.144977 36,925 146 457 -832
2018-06-17 09:09:48 GMT 47.518158 3.139343 37,025 147 456 -576
2018-06-17 09:09:44 GMT 47.524994 3.132794 37,025 147 456 -576
2018-06-17 09:09:40 GMT 47.533630 3.125404 37,025 152 453 64
2018-06-17 09:09:31 GMT 47.550781 3.113427 37,000 156 455 -64
2018-06-17 09:09:26 GMT 47.558578 3.108582 37,000 156 455 -64
2018-06-17 09:09:23 GMT 47.564331 3.104976 37,000 157 456 -64
2018-06-17 09:09:13 GMT 47.583927 3.092651 37,000 157 458 64
2018-06-17 09:09:09 GMT 47.591377 3.088074 37,000 157 461 0
2018-06-17 09:09:04 GMT 47.601059 3.082008 37,000 157 461 64
2018-06-17 09:08:58 GMT 47.613235 3.074318 37,000 157 462 0
2018-06-17 09:08:51 GMT 47.627197 3.065598 37,000 157 463 0
2018-06-17 09:08:41 GMT 47.646820 3.053354 37,000 157 464 0
2018-06-17 09:08:30 GMT 47.668900 3.039505 37,000 157 471 64
2018-06-17 09:08:26 GMT 47.676567 3.034762 37,000 157 471 64
2018-06-17 09:08:22 GMT 47.684715 3.029621 37,000 157 471 64
2018-06-17 09:08:18 GMT 47.692677 3.024691 37,000 157 471 64
2018-06-17 09:08:07 GMT 47.714973 3.010676 36,975 157 474 -64
2018-06-17 09:08:01 GMT 47.726891 3.003211 37,000 156 474 0
2018-06-17 09:07:58 GMT 47.734863 2.998238 37,000 156 474 0
2018-06-17 09:07:48 GMT 47.753036 2.986771 37,000 156 474 0
2018-06-17 09:07:45 GMT 47.758896 2.983063 37,000 156 474 0
2018-06-17 09:07:35 GMT 47.778751 2.970534 37,000 156 474 0
2018-06-17 09:07:27 GMT 47.796253 2.959477 37,000 157 473 0
2018-06-17 09:07:24 GMT 47.800369 2.956902 37,000 157 473 0
2018-06-17 09:07:19 GMT 47.810806 2.950241 37,000 157 473 0
2018-06-17 09:07:14 GMT 47.820786 2.943984 36,975 157 473 0
2018-06-17 09:07:09 GMT 47.833076 2.936237 36,975 157 473 0
2018-06-17 09:07:05 GMT 47.841129 2.931166 37,000 157 473 -64
2018-06-17 09:06:49 GMT 47.871250 2.912081 37,000 156 472 0
2018-06-17 09:06:43 GMT 47.883537 2.904334 37,000 156 472 0
2018-06-17 09:06:31 GMT 47.907532 2.889130 37,000 156 473 0
2018-06-17 09:06:27 GMT 47.915894 2.883841 37,000 156 473 0
2018-06-17 09:06:23 GMT 47.923828 2.878830 37,000 156 473 0
2018-06-17 09:06:19 GMT 47.931347 2.874052 37,000 156 472 0
2018-06-17 09:06:11 GMT 47.948013 2.863417 37,000 156 472 0
2018-06-17 09:06:02 GMT 47.966217 2.851913 37,000 156 472 0
2018-06-17 09:05:58 GMT 47.974228 2.846832 37,000 156 472 0
2018-06-17 09:05:51 GMT 47.988003 2.838064 37,000 156 472 0
2018-06-17 09:05:48 GMT 47.994141 2.834198 37,000 156 472 0
2018-06-17 09:05:41 GMT 48.008011 2.825409 36,975 156 472 0
2018-06-17 09:05:37 GMT 48.015839 2.820465 37,000 156 472 0
2018-06-17 09:05:34 GMT 48.022171 2.816444 37,000 156 472 0
2018-06-17 09:05:30 GMT 48.029892 2.811539 37,000 156 472 64
2018-06-17 09:05:26 GMT 48.037720 2.806595 36,975 156 472 64
2018-06-17 09:05:21 GMT 48.049267 2.799260 36,975 154 473 0
2018-06-17 09:05:18 GMT 48.055130 2.795528 36,975 151 474 0
2018-06-17 09:05:15 GMT 48.061615 2.791351 36,975 155 473 64
2018-06-17 09:05:12 GMT 48.065826 2.788536 36,975 154 474 0
2018-06-17 09:05:09 GMT 48.073563 2.783249 36,975 154 473 0
2018-06-17 09:05:05 GMT 48.081253 2.777756 36,975 153 474 0
2018-06-17 09:05:02 GMT 48.085297 2.774823 36,975 153 474 0
2018-06-17 09:04:58 GMT 48.095306 2.767181 36,975 152 474 0
2018-06-17 09:04:54 GMT 48.102753 2.761301 36,975 151 474 0
2018-06-17 09:04:51 GMT 48.108444 2.756744 36,975 151 474 0
2018-06-17 09:04:46 GMT 48.118057 2.748917 36,975 151 474 0
2018-06-17 09:04:42 GMT 48.124123 2.743976 36,975 151 473 0
2018-06-17 09:04:39 GMT 48.129894 2.739328 36,975 151 473 0
2018-06-17 09:04:35 GMT 48.138924 2.731934 36,975 151 473 0
2018-06-17 09:04:30 GMT 48.149414 2.723373 36,975 151 473 0
2018-06-17 09:04:25 GMT 48.157032 2.717215 36,975 151 474 0
2018-06-17 09:04:21 GMT 48.164795 2.710876 36,975 151 473 0
2018-06-17 09:04:18 GMT 48.170673 2.706178 36,975 151 474 0
2018-06-17 09:04:15 GMT 48.176376 2.701580 36,975 151 474 0
2018-06-17 09:04:12 GMT 48.181892 2.697144 36,975 151 474 0
2018-06-17 09:04:09 GMT 48.187664 2.692518 36,975 152 474 0
2018-06-17 09:04:05 GMT 48.195812 2.686085 36,975 152 474 -64
2018-06-17 09:04:02 GMT 48.201630 2.681531 36,975 153 474 -64
2018-06-17 09:03:59 GMT 48.207550 2.676861 37,000 154 473 -64
2018-06-17 09:03:55 GMT 48.216339 2.670241 37,000 153 474 -64
2018-06-17 09:03:52 GMT 48.223370 2.665269 37,000 143 479 0
2018-06-17 09:03:47 GMT 48.232914 2.658691 37,000 153 474 -64
2018-06-17 09:03:42 GMT 48.240921 2.652917 37,000 143 479 0
2018-06-17 09:03:39 GMT 48.248383 2.647353 37,000 152 475 0
2018-06-17 09:03:36 GMT 48.254326 2.642790 37,000 152 475 0
2018-06-17 09:03:33 GMT 48.258377 2.639610 37,000 152 475 0
2018-06-17 09:03:29 GMT 48.267929 2.631859 37,000 150 476 0
2018-06-17 09:03:25 GMT 48.275803 2.625239 37,000 147 476 0
2018-06-17 09:03:21 GMT 48.281235 2.620528 37,000 149 476 0
2018-06-17 09:03:17 GMT 48.290176 2.612492 37,000 147 476 0
2018-06-17 09:03:13 GMT 48.297386 2.605784 37,000 146 478 0
2018-06-17 09:03:10 GMT 48.304790 2.598628 37,000 146 478 0
2018-06-17 09:03:05 GMT 48.314335 2.589087 37,025 145 478 0
2018-06-17 09:03:01 GMT 48.319656 2.583548 37,000 144 478 0
2018-06-17 09:02:56 GMT 48.328766 2.573836 37,025 144 478 0
2018-06-17 09:02:53 GMT 48.334213 2.567913 37,000 143 479 0
2018-06-17 09:02:48 GMT 48.344742 2.556434 37,000 143 479 0
2018-06-17 09:02:44 GMT 48.351807 2.548684 37,000 144 480 -64
2018-06-17 09:02:39 GMT 48.358978 2.540877 37,025 143 479 0
2018-06-17 09:02:34 GMT 48.368225 2.530799 37,000 143 479 0
2018-06-17 09:02:31 GMT 48.373398 2.525165 37,000 144 480 -64
2018-06-17 09:02:28 GMT 48.378155 2.519989 37,025 144 480 -64
2018-06-17 09:02:25 GMT 48.383835 2.513827 37,025 144 480 -64
2018-06-17 09:02:22 GMT 48.388275 2.508967 37,025 144 480 -64
2018-06-17 09:02:19 GMT 48.395279 2.501291 37,025 144 480 -64
2018-06-17 09:02:16 GMT 48.400681 2.495446 37,025 143 481 -64
2018-06-17 09:02:13 GMT 48.406265 2.489389 37,025 144 480 -64
2018-06-17 09:02:10 GMT 48.411396 2.483777 37,025 143 481 -64
2018-06-17 09:02:06 GMT 48.417023 2.477628 37,025 143 481 -64
2018-06-17 09:02:03 GMT 48.423965 2.470045 37,025 143 481 -64
2018-06-17 09:02:00 GMT 48.429245 2.464247 37,025 143 481 0
2018-06-17 09:01:55 GMT 48.436798 2.456008 37,050 144 481 64
2018-06-17 09:01:52 GMT 48.443985 2.448191 37,050 144 481 0
2018-06-17 09:01:49 GMT 48.447601 2.444247 37,025 144 481 0
2018-06-17 09:01:45 GMT 48.455807 2.435279 37,025 144 482 64
2018-06-17 09:01:41 GMT 48.461975 2.428542 37,025 144 481 64
2018-06-17 09:01:38 GMT 48.467194 2.422837 37,025 144 482 64
2018-06-17 09:01:35 GMT 48.474518 2.414824 37,025 144 482 64
2018-06-17 09:01:31 GMT 48.481361 2.407379 37,025 144 482 64
2018-06-17 09:01:28 GMT 48.486877 2.401358 37,025 144 484 0
2018-06-17 09:01:24 GMT 48.492462 2.395231 37,025 144 484 64
2018-06-17 09:01:21 GMT 48.499512 2.387554 37,025 144 484 64
2018-06-17 09:01:18 GMT 48.504959 2.381639 37,025 144 484 0
2018-06-17 09:01:12 GMT 48.515533 2.370156 37,025 144 484 0
2018-06-17 09:01:09 GMT 48.520706 2.364455 37,025 144 484 0
2018-06-17 09:01:06 GMT 48.526108 2.358539 37,025 143 484 0
2018-06-17 09:01:02 GMT 48.533020 2.351074 37,025 143 484 0
2018-06-17 09:00:59 GMT 48.538902 2.344569 37,025 143 484 0
2018-06-17 09:00:56 GMT 48.544418 2.338539 37,025 143 484 0
2018-06-17 09:00:51 GMT 48.553379 2.328740 37,000 143 484 0
2018-06-17 09:00:48 GMT 48.558884 2.322693 37,000 143 485 0
2018-06-17 09:00:45 GMT 48.564411 2.316670 37,000 143 485 0
2018-06-17 09:00:40 GMT 48.573166 2.306988 37,000 143 485 0
2018-06-17 09:00:37 GMT 48.580444 2.299030 37,025 143 485 0
2018-06-17 09:00:34 GMT 48.584061 2.295086 37,025 143 485 0
2018-06-17 09:00:31 GMT 48.591179 2.287180 37,025 143 485 0
2018-06-17 09:00:28 GMT 48.595276 2.282762 37,025 143 485 0
2018-06-17 09:00:24 GMT 48.602325 2.274945 37,025 143 485 0
2018-06-17 09:00:21 GMT 48.608730 2.267882 37,025 143 485 0
2018-06-17 09:00:18 GMT 48.613430 2.262750 37,025 143 485 0
2018-06-17 09:00:13 GMT 48.622559 2.252620 37,000 143 485 0
2018-06-17 09:00:10 GMT 48.627823 2.246845 37,025 143 485 0
2018-06-17 09:00:07 GMT 48.635124 2.238753 37,025 143 485 0
2018-06-17 09:00:03 GMT 48.640640 2.232689 37,000 143 485 64
2018-06-17 09:00:00 GMT 48.646088 2.226703 37,000 143 485 0
2018-06-17 08:59:57 GMT 48.651169 2.221140 37,000 143 485 64
2018-06-17 08:59:54 GMT 48.656570 2.215154 37,000 143 485 0
2018-06-17 08:59:50 GMT 48.666267 2.204493 37,000 143 485 0
2018-06-17 08:59:46 GMT 48.670532 2.199801 37,000 143 485 0
2018-06-17 08:59:41 GMT 48.680649 2.188603 37,000 143 485 64
2018-06-17 08:59:38 GMT 48.687012 2.181561 37,000 143 485 64
2018-06-17 08:59:34 GMT 48.693268 2.174715 37,000 143 486 0
2018-06-17 08:59:28 GMT 48.703857 2.162969 37,000 143 485 0
2018-06-17 08:59:25 GMT 48.709442 2.156771 37,000 143 485 64
2018-06-17 08:59:21 GMT 48.718140 2.147123 37,000 143 485 64
2018-06-17 08:59:17 GMT 48.723724 2.140925 37,000 143 485 0
2018-06-17 08:59:13 GMT 48.729767 2.134167 37,000 143 486 -64
2018-06-17 08:59:09 GMT 48.738377 2.124698 37,000 143 486 -64
2018-06-17 08:59:06 GMT 48.743546 2.118953 37,000 143 486 -64
2018-06-17 08:59:02 GMT 48.750294 2.111399 37,000 143 485 -64
2018-06-17 08:58:59 GMT 48.757557 2.103376 37,000 143 485 0
2018-06-17 08:58:56 GMT 48.760956 2.099545 37,000 143 485 0
2018-06-17 08:58:53 GMT 48.767284 2.092534 36,975 143 485 128
2018-06-17 08:58:48 GMT 48.775681 2.083177 36,975 143 485 64
2018-06-17 08:58:45 GMT 48.781017 2.077283 36,975 143 485 128
2018-06-17 08:58:42 GMT 48.786606 2.071067 36,975 143 485 64
2018-06-17 08:58:38 GMT 48.793762 2.063106 36,975 143 485 0
2018-06-17 08:58:35 GMT 48.798336 2.057985 36,975 143 486 64
2018-06-17 08:58:32 GMT 48.804482 2.051191 36,975 143 486 64
2018-06-17 08:58:28 GMT 48.811745 2.043096 36,975 143 486 0
2018-06-17 08:58:25 GMT 48.816959 2.037241 36,975 143 486 0
2018-06-17 08:58:22 GMT 48.824478 2.028949 36,975 143 486 0
2018-06-17 08:58:17 GMT 48.831806 2.020762 36,975 143 485 0
2018-06-17 08:58:14 GMT 48.837158 2.014864 36,975 143 485 0
2018-06-17 08:58:11 GMT 48.843910 2.007318 36,975 143 485 0
2018-06-17 08:58:05 GMT 48.853874 1.996259 36,975 143 485 0
2018-06-17 08:58:02 GMT 48.859833 1.989610 36,975 143 485 0
2018-06-17 08:57:57 GMT 48.868351 1.980213 36,975 143 485 0
2018-06-17 08:57:54 GMT 48.872818 1.975285 36,975 143 486 0
2018-06-17 08:57:51 GMT 48.879246 1.968143 36,975 143 486 0
2018-06-17 08:57:47 GMT 48.887901 1.958458 36,975 143 486 0
2018-06-17 08:57:44 GMT 48.891533 1.954410 36,975 143 486 -64
2018-06-17 08:57:40 GMT 48.899120 1.945953 37,000 143 486 -64
2018-06-17 08:57:37 GMT 48.904495 1.940002 37,000 143 486 -64
2018-06-17 08:57:33 GMT 48.911911 1.931763 37,000 143 486 -64
2018-06-17 08:57:29 GMT 48.919231 1.923619 37,000 143 486 0
2018-06-17 08:57:26 GMT 48.927006 1.914946 37,000 143 486 0
2018-06-17 08:57:23 GMT 48.929752 1.911910 37,000 143 486 0
2018-06-17 08:57:20 GMT 48.937042 1.903733 37,000 143 487 0
2018-06-17 08:57:15 GMT 48.944824 1.895001 37,000 143 486 0
2018-06-17 08:57:12 GMT 48.949444 1.889865 37,000 143 486 0
2018-06-17 08:57:08 GMT 48.956848 1.881553 37,000 143 489 0
2018-06-17 08:57:02 GMT 48.967621 1.869507 37,000 143 486 0
2018-06-17 08:56:59 GMT 48.974670 1.861549 37,000 143 486 -64
2018-06-17 08:56:54 GMT 48.983242 1.851919 37,000 143 488 0
2018-06-17 08:56:51 GMT 48.986755 1.847886 37,000 143 486 0
2018-06-17 08:56:47 GMT 48.997486 1.835801 37,000 143 487 0
2018-06-17 08:56:43 GMT 49.001404 1.831407 37,000 143 488 0
2018-06-17 08:56:40 GMT 49.006889 1.825176 37,000 143 489 0
2018-06-17 08:56:36 GMT 49.014038 1.817181 37,000 143 488 0
2018-06-17 08:56:31 GMT 49.023102 1.806969 37,000 143 489 0
2018-06-17 08:56:28 GMT 49.029648 1.799645 37,000 143 489 0
2018-06-17 08:56:25 GMT 49.034180 1.794504 37,000 143 489 0
2018-06-17 08:56:21 GMT 49.041153 1.786652 37,000 143 489 0
2018-06-17 08:56:17 GMT 49.050156 1.776546 37,000 143 489 0
2018-06-17 08:56:14 GMT 49.053772 1.772461 35,000 143 489 0
2018-06-17 08:56:11 GMT 49.060318 1.765137 37,000 143 489 0
2018-06-17 08:56:07 GMT 49.068512 1.755911 37,000 143 489 0
2018-06-17 08:56:04 GMT 49.072540 1.751404 37,000 143 490 0
2018-06-17 08:56:00 GMT 49.079884 1.743068 37,000 143 489 0
2018-06-17 08:55:55 GMT 49.088928 1.732952 37,000 143 490 0
2018-06-17 08:55:52 GMT 49.096207 1.724783 37,000 143 490 0
2018-06-17 08:55:48 GMT 49.101837 1.718374 37,000 143 490 0
2018-06-17 08:55:45 GMT 49.107212 1.712349 37,000 143 490 0
2018-06-17 08:55:42 GMT 49.112473 1.706423 37,000 143 490 0
2018-06-17 08:55:39 GMT 49.117916 1.700279 37,000 143 490 0
2018-06-17 08:55:34 GMT 49.127289 1.689711 37,000 143 490 0
2018-06-17 08:55:31 GMT 49.132629 1.683655 37,000 143 489 0
2018-06-17 08:55:28 GMT 49.138184 1.677387 37,000 143 490 0
2018-06-17 08:55:24 GMT 49.145523 1.669055 37,000 143 488 64
2018-06-17 08:55:21 GMT 49.151047 1.662739 37,000 143 490 0
2018-06-17 08:55:17 GMT 49.157959 1.654921 37,000 143 489 0
2018-06-17 08:55:13 GMT 49.165192 1.646682 37,000 143 486 512
2018-06-17 08:55:10 GMT 49.170639 1.640484 37,000 143 489 0
2018-06-17 08:55:07 GMT 49.176712 1.633638 37,000 143 489 0
2018-06-17 08:55:03 GMT 49.183277 1.626193 37,000 143 489 0
2018-06-17 08:55:00 GMT 49.188725 1.620050 37,000 143 486 256
2018-06-17 08:54:57 GMT 49.194077 1.613934 37,000 143 488 64
2018-06-17 08:54:53 GMT 49.203014 1.603787 37,000 143 488 64
2018-06-17 08:54:49 GMT 49.208462 1.597643 36,975 143 486 256
2018-06-17 08:54:45 GMT 49.216003 1.589042 36,825 143 486 960
2018-06-17 08:54:42 GMT 49.220627 1.583792 36,950 143 489 896
2018-06-17 08:54:39 GMT 49.227448 1.576045 36,875 143 485 896
2018-06-17 08:54:35 GMT 49.235088 1.567359 36,850 143 485 1024
2018-06-17 08:54:31 GMT 49.240540 1.561115 36,825 143 485 1024
2018-06-17 08:54:28 GMT 49.245842 1.555071 36,650 143 486 960
2018-06-17 08:54:24 GMT 49.254776 1.544988 36,550 143 489 896
2018-06-17 08:54:21 GMT 49.258644 1.540543 36,625 143 486 960
2018-06-17 08:54:16 GMT 49.269260 1.528473 36,550 143 486 896
2018-06-17 08:54:12 GMT 49.274551 1.522452 36,500 143 486 896
2018-06-17 08:54:08 GMT 49.281601 1.514423 36,375 143 487 1152
2018-06-17 08:54:05 GMT 49.287273 1.508018 36,400 143 486 960
2018-06-17 08:54:01 GMT 49.294556 1.499634 36,300 143 486 1088
2018-06-17 08:53:58 GMT 49.299892 1.493635 36,225 143 486 1088
2018-06-17 08:53:54 GMT 49.307430 1.484961 35,925 143 487 1152
2018-06-17 08:53:51 GMT 49.313019 1.478601 36,075 143 488 1280
2018-06-17 08:53:47 GMT 49.320049 1.470578 36,050 143 488 1280
2018-06-17 08:53:44 GMT 49.325409 1.464492 35,875 143 489 896
2018-06-17 08:53:40 GMT 49.334610 1.453928 35,875 143 489 896
2018-06-17 08:53:37 GMT 49.338158 1.449906 35,725 143 466 576
2018-06-17 08:53:33 GMT 49.346741 1.440054 35,700 143 489 832
2018-06-17 08:53:30 GMT 49.351330 1.434800 35,725 143 485 192
2018-06-17 08:53:27 GMT 49.358139 1.427096 35,725 143 488 512
2018-06-17 08:53:23 GMT 49.363541 1.420898 35,700 143 485 192
2018-06-17 08:53:19 GMT 49.370773 1.412659 35,700 143 486 256
2018-06-17 08:53:16 GMT 49.378143 1.404208 35,675 143 485 192
2018-06-17 08:53:13 GMT 49.381821 1.400034 35,650 143 483 256
2018-06-17 08:53:10 GMT 49.386932 1.394207 35,625 143 482 256
2018-06-17 08:53:07 GMT 49.392105 1.388221 35,650 143 482 256
2018-06-17 08:53:04 GMT 49.397461 1.382165 35,625 143 475 320
2018-06-17 08:53:00 GMT 49.404491 1.374086 35,625 143 480 256
2018-06-17 08:52:55 GMT 49.415222 1.361812 35,600 143 478 256
2018-06-17 08:52:51 GMT 49.420460 1.355800 35,575 143 477 256
2018-06-17 08:52:47 GMT 49.428562 1.346493 35,525 143 475 320
2018-06-17 08:52:44 GMT 49.432709 1.341778 35,550 143 475 320
2018-06-17 08:52:41 GMT 49.439575 1.333899 35,450 143 465 832
2018-06-17 08:52:37 GMT 49.446297 1.326154 35,525 143 470 384
2018-06-17 08:52:32 GMT 49.454678 1.316504 35,400 143 470 384
2018-06-17 08:52:27 GMT 49.463837 1.306000 35,450 143 465 960
2018-06-17 08:52:23 GMT 49.469154 1.299950 35,400 143 468 384
2018-06-17 08:52:19 GMT 49.477707 1.290026 35,400 143 468 448
2018-06-17 08:52:12 GMT 49.489033 1.277012 35,325 143 465 640
2018-06-17 08:52:09 GMT 49.494900 1.270257 35,300 143 465 768
2018-06-17 08:52:05 GMT 49.503433 1.260464 34,875 143 464 832
2018-06-17 08:52:02 GMT 49.506767 1.256673 35,225 143 465 960
2018-06-17 08:51:59 GMT 49.511936 1.250734 35,125 143 465 960
2018-06-17 08:51:56 GMT 49.515793 1.246225 35,050 143 465 960
2018-06-17 08:51:51 GMT 49.524132 1.236704 34,950 143 464 832
2018-06-17 08:51:48 GMT 49.529625 1.230320 34,950 143 464 832
2018-06-17 08:51:45 GMT 49.534931 1.224233 34,450 142 469 1152
2018-06-17 08:51:39 GMT 49.546692 1.210664 34,800 143 463 1216
2018-06-17 08:51:35 GMT 49.552002 1.204521 34,575 142 477 3328
2018-06-17 08:51:31 GMT 49.560379 1.194835 34,625 143 464 1600
2018-06-17 08:51:28 GMT 49.563950 1.190716 34,500 143 465 1792
2018-06-17 08:51:25 GMT 49.570358 1.183257 34,525 143 465 1856
2018-06-17 08:51:20 GMT 49.577435 1.175166 34,400 143 467 1856
2018-06-17 08:51:17 GMT 49.583115 1.168559 34,175 142 469 1216
2018-06-17 08:51:14 GMT 49.588028 1.162888 34,225 143 469 1600
2018-06-17 08:51:11 GMT 49.595032 1.154752 34,075 142 469 1216
2018-06-17 08:51:07 GMT 49.600342 1.148650 33,925 142 469 1216
2018-06-17 08:51:02 GMT 49.610439 1.136862 33,925 142 469 1216
2018-06-17 08:50:59 GMT 49.614716 1.131953 33,850 142 469 1152
2018-06-17 08:50:56 GMT 49.619099 1.126841 33,775 142 469 1152
2018-06-17 08:50:51 GMT 49.627533 1.117064 33,650 142 469 1088
2018-06-17 08:50:47 GMT 49.634628 1.108824 33,550 142 469 1024
2018-06-17 08:50:44 GMT 49.639847 1.102825 33,550 143 469 960
2018-06-17 08:50:38 GMT 49.650150 1.090838 33,500 142 468 960
2018-06-17 08:50:35 GMT 49.656967 1.082948 33,400 142 468 1024
2018-06-17 08:50:32 GMT 49.663464 1.075398 33,400 142 468 1024
2018-06-17 08:50:28 GMT 49.668549 1.069505 33,325 142 468 1472
2018-06-17 08:50:25 GMT 49.673721 1.063433 33,050 142 471 2368
2018-06-17 08:50:22 GMT 49.677940 1.058548 33,075 142 471 2368
2018-06-17 08:50:15 GMT 49.691391 1.042906 32,125 142 495 2240
2018-06-17 08:50:12 GMT 49.696426 1.036979 32,725 142 476 3200
2018-06-17 08:50:08 GMT 49.705170 1.026788 32,375 142 482 3648
2018-06-17 08:50:05 GMT 49.708107 1.023362 32,200 142 490 3200
2018-06-17 08:50:02 GMT 49.714920 1.015368 31,700 142 499 1600
2018-06-17 08:49:59 GMT 49.719280 1.010297 31,850 142 496 1472
2018-06-17 08:49:56 GMT 49.726494 1.001909 31,600 142 493 2880
2018-06-17 08:49:53 GMT 49.729939 0.997826 31,650 142 495 2496
2018-06-17 08:49:47 GMT 49.743019 0.982534 31,300 142 496 1664
2018-06-17 08:49:43 GMT 49.748428 0.976265 31,275 142 496 1536
2018-06-17 08:49:38 GMT 49.756119 0.967303 31,125 142 497 1536
2018-06-17 08:49:33 GMT 49.765366 0.956479 30,825 142 498 1600
2018-06-17 08:49:29 GMT 49.775345 0.944752 30,900 142 498 1600
2018-06-17 08:49:22 GMT 49.787388 0.930646 30,650 142 499 1600
2018-06-17 08:49:15 GMT 49.801620 0.913961 30,475 142 501 1600
2018-06-17 08:49:12 GMT 49.805649 0.909263 30,475 142 500 1600
2018-06-17 08:49:08 GMT 49.813129 0.900508 30,375 142 501 1536
2018-06-17 08:49:04 GMT 49.822403 0.889603 30,175 142 500 1088
2018-06-17 08:49:01 GMT 49.826210 0.885142 30,200 142 500 1152
2018-06-17 08:48:57 GMT 49.833565 0.876531 30,050 142 494 1088
2018-06-17 08:48:54 GMT 49.838837 0.870377 30,025 142 499 960
2018-06-17 08:48:50 GMT 49.846088 0.861833 30,025 142 496 896
2018-06-17 08:48:46 GMT 49.855179 0.851224 29,950 142 498 832
2018-06-17 08:48:43 GMT 49.858749 0.846987 29,925 142 498 832
2018-06-17 08:48:40 GMT 49.864429 0.840380 29,775 142 496 896
2018-06-17 08:48:36 GMT 49.873413 0.829839 29,800 142 496 960
2018-06-17 08:48:33 GMT 49.877045 0.825608 29,750 142 495 1024
2018-06-17 08:48:29 GMT 49.882782 0.818843 29,650 142 493 1152
2018-06-17 08:48:25 GMT 49.891430 0.808683 29,500 142 490 1408
2018-06-17 08:48:22 GMT 49.896606 0.802580 29,525 142 493 1152
2018-06-17 08:48:19 GMT 49.902054 0.796147 29,500 142 493 1280
2018-06-17 08:48:16 GMT 49.907135 0.790221 29,450 142 492 1472
2018-06-17 08:48:13 GMT 49.912846 0.783444 29,200 142 493 1472
2018-06-17 08:48:08 GMT 49.922195 0.772440 29,000 142 492 1408
2018-06-17 08:48:05 GMT 49.927555 0.766148 29,050 142 492 1472
2018-06-17 08:48:02 GMT 49.932770 0.759987 29,075 142 492 1472
2018-06-17 08:47:59 GMT 49.938400 0.753380 29,000 142 493 1536
2018-06-17 08:47:55 GMT 49.947556 0.742589 28,925 142 493 1536
2018-06-17 08:47:52 GMT 49.952740 0.736455 28,850 142 493 1536
2018-06-17 08:47:49 GMT 49.956436 0.732109 28,600 142 493 1408
2018-06-17 08:47:46 GMT 49.963531 0.723797 28,625 142 493 1408
2018-06-17 08:47:42 GMT 49.969219 0.717006 28,500 142 493 1408
2018-06-17 08:47:39 GMT 49.974747 0.710497 28,450 142 493 1408
2018-06-17 08:47:33 GMT 49.987652 0.695182 28,375 142 492 1280
2018-06-17 08:47:30 GMT 49.993099 0.688798 28,325 142 492 1408
2018-06-17 08:47:27 GMT 49.996685 0.684493 28,075 142 492 1600
2018-06-17 08:47:22 GMT 50.007431 0.671756 28,125 142 492 1664
2018-06-17 08:47:18 GMT 50.013016 0.665107 28,050 142 492 1600
2018-06-17 08:47:14 GMT 50.021961 0.654503 27,925 142 492 1472
2018-06-17 08:47:10 GMT 50.028717 0.646531 27,800 142 492 1408
2018-06-17 08:47:07 GMT 50.032516 0.641977 27,750 142 490 1408
2018-06-17 08:47:04 GMT 50.038208 0.635277 27,725 142 487 1600
2018-06-17 08:47:01 GMT 50.043686 0.628750 27,500 142 488 1408
2018-06-17 08:46:58 GMT 50.049007 0.622435 27,450 142 490 1408
2018-06-17 08:46:55 GMT 50.054489 0.615885 26,775 142 487 1344
2018-06-17 08:46:50 GMT 50.063690 0.605043 27,250 142 490 1408
2018-06-17 08:46:47 GMT 50.067261 0.600706 27,250 142 489 1408
2018-06-17 08:46:44 GMT 50.074127 0.592611 26,975 142 488 1408
2018-06-17 08:46:40 GMT 50.081364 0.583983 27,125 142 488 1600
2018-06-17 08:46:37 GMT 50.086578 0.577821 26,975 142 488 1664
2018-06-17 08:46:34 GMT 50.091789 0.571586 26,450 142 487 1536
2018-06-17 08:46:31 GMT 50.097427 0.564929 26,900 142 488 1664
2018-06-17 08:46:27 GMT 50.104385 0.556617 26,800 142 488 1664
2018-06-17 08:46:23 GMT 50.111668 0.547980 26,575 142 482 1088
2018-06-17 08:46:20 GMT 50.117661 0.540860 26,600 142 487 1536
2018-06-17 08:46:17 GMT 50.123886 0.533415 26,500 142 486 1216
2018-06-17 08:46:14 GMT 50.127136 0.529584 26,450 142 486 1152
2018-06-17 08:46:11 GMT 50.132568 0.523038 26,100 142 472 896
2018-06-17 08:46:08 GMT 50.139267 0.515056 26,325 142 485 1152
2018-06-17 08:46:05 GMT 50.143089 0.510493 26,300 142 485 1216
2018-06-17 08:46:01 GMT 50.150482 0.501685 26,225 142 485 1152
2018-06-17 08:45:57 GMT 50.157475 0.493346 26,075 142 482 1088
2018-06-17 08:45:54 GMT 50.164627 0.484772 26,025 142 481 1088
2018-06-17 08:45:51 GMT 50.168091 0.480652 25,900 142 477 1280
2018-06-17 08:45:47 GMT 50.175304 0.472041 25,900 142 479 1024
2018-06-17 08:45:44 GMT 50.180428 0.465954 25,900 142 473 960
2018-06-17 08:45:41 GMT 50.185688 0.459644 25,800 142 476 1344
2018-06-17 08:45:38 GMT 50.190762 0.453557 25,800 142 477 1216
2018-06-17 08:45:35 GMT 50.197929 0.444946 25,700 142 476 1344
2018-06-17 08:45:32 GMT 50.203377 0.438488 25,625 142 475 1216
2018-06-17 08:45:29 GMT 50.206787 0.434394 25,525 142 475 1344
2018-06-17 08:45:26 GMT 50.212006 0.428178 25,475 142 459 1088
2018-06-17 08:45:23 GMT 50.217484 0.421563 25,450 142 473 960
2018-06-17 08:45:20 GMT 50.225491 0.412062 25,300 142 472 896
2018-06-17 08:45:17 GMT 50.228027 0.409024 25,300 142 462 1152
2018-06-17 08:45:14 GMT 50.234756 0.401001 25,325 142 470 896
2018-06-17 08:45:11 GMT 50.238293 0.396770 25,275 142 468 768
2018-06-17 08:45:08 GMT 50.245102 0.388641 25,225 142 465 896
2018-06-17 08:45:05 GMT 50.250412 0.382281 25,200 142 465 960
2018-06-17 08:45:02 GMT 50.255142 0.376653 25,125 142 463 1024
2018-06-17 08:44:59 GMT 50.260262 0.370566 25,125 142 463 1024
2018-06-17 08:44:56 GMT 50.263988 0.366038 25,000 142 462 1152
2018-06-17 08:44:51 GMT 50.274261 0.353731 24,950 142 462 1280
2018-06-17 08:44:48 GMT 50.277721 0.349558 24,875 142 460 1280
2018-06-17 08:44:45 GMT 50.284561 0.341371 24,575 142 459 960
2018-06-17 08:44:41 GMT 50.289597 0.335300 24,500 142 446 1472
2018-06-17 08:44:38 GMT 50.294388 0.329516 24,725 142 457 640
2018-06-17 08:44:35 GMT 50.299416 0.323503 24,425 142 452 1344
2018-06-17 08:44:32 GMT 50.304520 0.317375 24,575 142 454 768
2018-06-17 08:44:29 GMT 50.310837 0.309713 24,600 142 453 1024
2018-06-17 08:44:26 GMT 50.314133 0.305738 24,350 142 442 1600
2018-06-17 08:44:21 GMT 50.322556 0.295547 24,350 142 451 1728
2018-06-17 08:44:18 GMT 50.327438 0.289653 24,350 142 451 1728
2018-06-17 08:44:15 GMT 50.332375 0.283715 24,275 142 450 1792
2018-06-17 08:44:12 GMT 50.338852 0.275887 24,150 142 450 1856
2018-06-17 08:44:08 GMT 50.343658 0.270105 23,975 142 450 1792
2018-06-17 08:44:05 GMT 50.348339 0.264488 23,750 142 448 1536
2018-06-17 08:44:00 GMT 50.356255 0.254987 23,650 142 448 1536
2018-06-17 08:43:57 GMT 50.361420 0.248710 23,700 142 447 1472
2018-06-17 08:43:54 GMT 50.366684 0.242422 23,325 142 444 1664
2018-06-17 08:43:51 GMT 50.371628 0.236495 23,550 142 446 1472
2018-06-17 08:43:48 GMT 50.378086 0.228709 23,425 142 444 1664
2018-06-17 08:43:45 GMT 50.382065 0.223919 23,450 142 445 1600
2018-06-17 08:43:41 GMT 50.389435 0.215101 23,325 142 444 1664
2018-06-17 08:43:38 GMT 50.394196 0.209260 23,175 142 443 1728
2018-06-17 08:43:34 GMT 50.399082 0.203396 23,075 142 442 1664
2018-06-17 08:43:31 GMT 50.405415 0.195750 23,050 142 441 1536
2018-06-17 08:43:28 GMT 50.408752 0.191755 22,700 142 439 1472
2018-06-17 08:43:25 GMT 50.415466 0.183650 22,875 142 441 1536
2018-06-17 08:43:20 GMT 50.422729 0.174890 22,700 142 440 1600
2018-06-17 08:43:17 GMT 50.427017 0.169782 22,575 142 438 1408
2018-06-17 08:43:14 GMT 50.431900 0.163830 22,550 142 438 1408
2018-06-17 08:43:10 GMT 50.438328 0.156110 22,500 142 437 1408
2018-06-17 08:43:07 GMT 50.442982 0.150468 22,350 149 412 2560
2018-06-17 08:43:04 GMT 50.447845 0.144557 22,400 142 435 1280
2018-06-17 08:43:01 GMT 50.452709 0.138665 22,300 142 434 1344
2018-06-17 08:42:57 GMT 50.459015 0.131113 22,250 142 432 1344
2018-06-17 08:42:53 GMT 50.464909 0.123893 22,125 142 431 1728
2018-06-17 08:42:50 GMT 50.470585 0.116990 22,025 142 431 1856
2018-06-17 08:42:47 GMT 50.476639 0.109646 21,800 142 430 1920
2018-06-17 08:42:43 GMT 50.481106 0.104147 21,750 142 429 1920
2018-06-17 08:42:40 GMT 50.487488 0.096419 21,700 142 429 1856
2018-06-17 08:42:37 GMT 50.490601 0.092589 21,550 142 429 1728
2018-06-17 08:42:33 GMT 50.496983 0.084847 21,500 142 428 1600
2018-06-17 08:42:30 GMT 50.502892 0.077572 21,425 142 426 1536
2018-06-17 08:42:27 GMT 50.507595 0.071931 21,075 142 424 1472
2018-06-17 08:42:22 GMT 50.513927 0.064136 21,100 142 422 1472
2018-06-17 08:42:16 GMT 50.524632 0.051146 21,075 142 422 1472
2018-06-17 08:42:11 GMT 50.530640 0.043797 20,500 150 410 1344
2018-06-17 08:42:07 GMT 50.538666 0.034477 20,825 145 416 1664
2018-06-17 08:42:04 GMT 50.542229 0.030509 20,675 147 414 1984
2018-06-17 08:42:01 GMT 50.546234 0.026352 20,575 150 414 2816
2018-06-17 08:41:57 GMT 50.552444 0.020093 20,550 149 412 2432
2018-06-17 08:41:54 GMT 50.557079 0.015663 20,275 150 413 2816
2018-06-17 08:41:50 GMT 50.563736 0.009650 20,025 150 414 2816
2018-06-17 08:41:47 GMT 50.569042 0.004974 20,025 150 414 2624
2018-06-17 08:41:43 GMT 50.575935 -0.001039 19,850 150 415 2240
2018-06-17 08:41:40 GMT 50.580688 -0.005204 19,775 150 414 1664
2018-06-17 08:41:37 GMT 50.587418 -0.011059 19,575 150 413 1600
2018-06-17 08:41:34 GMT 50.592590 -0.015612 19,200 150 406 2304
2018-06-17 08:41:30 GMT 50.597580 -0.020021 19,500 150 406 1920
2018-06-17 08:41:26 GMT 50.605728 -0.027177 19,450 150 406 2048
2018-06-17 08:41:23 GMT 50.610489 -0.031369 19,375 150 408 1664
2018-06-17 08:41:20 GMT 50.615433 -0.035706 19,275 150 406 1920
2018-06-17 08:41:16 GMT 50.620651 -0.040331 19,150 150 406 2176
2018-06-17 08:41:13 GMT 50.627060 -0.045969 19,000 150 406 2624
2018-06-17 08:41:10 GMT 50.630402 -0.048919 18,475 150 407 2752
2018-06-17 08:41:06 GMT 50.637405 -0.055076 18,725 150 407 2752
2018-06-17 08:41:03 GMT 50.643951 -0.060931 18,525 150 408 2688
2018-06-17 08:40:59 GMT 50.648647 -0.065027 18,150 150 408 2304
2018-06-17 08:40:56 GMT 50.653770 -0.069555 18,300 150 407 2240
2018-06-17 08:40:52 GMT 50.660332 -0.075345 18,050 150 406 1856
2018-06-17 08:40:49 GMT 50.665268 -0.079651 18,075 150 405 1664
2018-06-17 08:40:46 GMT 50.669876 -0.083734 17,975 150 405 1728
2018-06-17 08:40:43 GMT 50.676315 -0.089375 17,825 150 403 2048
2018-06-17 08:40:40 GMT 50.679977 -0.092621 17,650 150 402 2112
2018-06-17 08:40:37 GMT 50.684280 -0.096427 17,700 150 402 2112
2018-06-17 08:40:34 GMT 50.689709 -0.101166 17,575 150 400 2048
2018-06-17 08:40:31 GMT 50.696365 -0.107040 17,150 150 399 1984
2018-06-17 08:40:28 GMT 50.700485 -0.110680 17,350 150 400 1984
2018-06-17 08:40:24 GMT 50.707626 -0.116915 17,200 150 398 1920
2018-06-17 08:40:20 GMT 50.712250 -0.120998 17,050 150 398 1792
2018-06-17 08:40:17 GMT 50.717964 -0.126038 16,950 150 395 1792
2018-06-17 08:40:14 GMT 50.721970 -0.129623 16,825 150 394 1984
2018-06-17 08:40:10 GMT 50.729691 -0.136438 16,775 150 394 1984
2018-06-17 08:40:04 GMT 50.739166 -0.144901 16,400 150 392 2624
2018-06-17 08:40:01 GMT 50.742325 -0.147722 15,850 150 394 2752
2018-06-17 08:39:58 GMT 50.747223 -0.152101 15,950 150 393 2176
2018-06-17 08:39:55 GMT 50.753300 -0.157547 16,075 150 394 2624
2018-06-17 08:39:50 GMT 50.760818 -0.164201 15,800 150 394 2432
2018-06-17 08:39:47 GMT 50.765396 -0.168358 15,675 150 394 2496
2018-06-17 08:39:44 GMT 50.769974 -0.172515 15,275 150 391 2048
2018-06-17 08:39:39 GMT 50.778435 -0.180130 15,375 150 391 2048
2018-06-17 08:39:36 GMT 50.781509 -0.182908 15,175 150 391 2112
2018-06-17 08:39:32 GMT 50.789337 -0.190034 15,200 150 390 2240
2018-06-17 08:39:29 GMT 50.794727 -0.194931 14,975 150 388 2304
2018-06-17 08:39:26 GMT 50.798080 -0.197977 14,775 150 386 2368
2018-06-17 08:39:22 GMT 50.803345 -0.202802 14,675 150 387 2304
2018-06-17 08:39:19 GMT 50.808697 -0.207672 14,700 150 386 2368
2018-06-17 08:39:16 GMT 50.814056 -0.212526 14,475 150 384 2368
2018-06-17 08:39:12 GMT 50.821869 -0.219574 14,175 150 383 2432
2018-06-17 08:39:09 GMT 50.823624 -0.221211 14,250 150 383 2368
2018-06-17 08:39:06 GMT 50.830261 -0.227150 14,100 150 380 2816
2018-06-17 08:39:03 GMT 50.834160 -0.230713 14,075 150 381 2432
2018-06-17 08:38:59 GMT 50.840698 -0.236503 13,875 150 380 2688
2018-06-17 08:38:55 GMT 50.846832 -0.241922 13,700 151 379 3008
2018-06-17 08:38:52 GMT 50.851913 -0.246376 13,500 152 379 2624
2018-06-17 08:38:48 GMT 50.857529 -0.251236 13,250 152 378 2368
2018-06-17 08:38:45 GMT 50.861664 -0.254764 13,200 151 379 2880
2018-06-17 08:38:42 GMT 50.865372 -0.257882 13,025 152 378 2560
2018-06-17 08:38:39 GMT 50.872696 -0.263895 12,925 153 377 2176
2018-06-17 08:38:36 GMT 50.874474 -0.265350 12,850 153 377 2240
2018-06-17 08:38:33 GMT 50.879921 -0.269699 12,600 153 374 2688
2018-06-17 08:38:30 GMT 50.884964 -0.273767 12,625 153 374 2688
2018-06-17 08:38:26 GMT 50.890228 -0.277999 12,425 153 374 2688
2018-06-17 08:38:23 GMT 50.896545 -0.283046 12,250 153 373 2624
2018-06-17 08:38:20 GMT 50.899612 -0.285570 11,850 153 373 2624
2018-06-17 08:38:17 GMT 50.904236 -0.289282 12,000 153 372 2432
2018-06-17 08:38:14 GMT 50.910049 -0.293959 11,925 153 371 2432
2018-06-17 08:38:10 GMT 50.914673 -0.297670 11,550 153 368 2560
2018-06-17 08:38:07 GMT 50.919250 -0.301307 11,300 153 368 2560
2018-06-17 08:38:04 GMT 50.924332 -0.305405 11,475 153 367 2496
2018-06-17 08:38:01 GMT 50.929871 -0.309844 11,375 153 366 2240
2018-06-17 08:37:57 GMT 50.935272 -0.314102 11,250 153 365 1984
2018-06-17 08:37:53 GMT 50.941956 -0.319494 11,100 153 360 1600
2018-06-17 08:37:50 GMT 50.947769 -0.324171 11,025 153 354 1088
2018-06-17 08:37:47 GMT 50.951340 -0.326992 10,925 153 353 1024
2018-06-17 08:37:44 GMT 50.956219 -0.330963 10,925 153 351 960
2018-06-17 08:37:41 GMT 50.961899 -0.335541 10,875 152 347 960
2018-06-17 08:37:38 GMT 50.963295 -0.336685 10,700 152 345 960
2018-06-17 08:37:35 GMT 50.967499 -0.340057 10,775 152 334 1088
2018-06-17 08:37:32 GMT 50.972744 -0.344391 10,725 152 335 1024
2018-06-17 08:37:28 GMT 50.977661 -0.348445 10,375 152 327 1536
2018-06-17 08:37:24 GMT 50.983032 -0.352936 10,550 152 326 1664
2018-06-17 08:37:21 GMT 50.986942 -0.356140 10,475 152 324 1920
2018-06-17 08:37:18 GMT 50.991119 -0.359654 10,400 151 323 2176
2018-06-17 08:37:15 GMT 50.994995 -0.363007 10,025 151 321 3008
2018-06-17 08:37:12 GMT 50.998764 -0.366112 9,625 151 321 3008
2018-06-17 08:37:08 GMT 51.004623 -0.371160 9,875 151 320 2944
2018-06-17 08:37:05 GMT 51.007919 -0.373906 9,775 151 320 2944
2018-06-17 08:37:02 GMT 51.012127 -0.377502 8,525 153 301 1280
2018-06-17 08:36:59 GMT 51.015900 -0.380783 8,975 151 319 2816
2018-06-17 08:36:56 GMT 51.019089 -0.383482 9,375 151 319 2752
2018-06-17 08:36:53 GMT 51.022556 -0.386429 9,050 151 316 2560
2018-06-17 08:36:50 GMT 51.027786 -0.390831 9,025 152 315 2496
2018-06-17 08:36:46 GMT 51.033031 -0.395279 8,925 152 314 2368
2018-06-17 08:36:43 GMT 51.036613 -0.398254 8,475 152 311 1920
2018-06-17 08:36:40 GMT 51.039368 -0.400556 8,750 152 308 1600
2018-06-17 08:36:37 GMT 51.043224 -0.403748 8,350 155 286 1280
2018-06-17 08:36:34 GMT 51.048981 -0.408276 8,550 183 249 2624
2018-06-17 08:36:31 GMT 51.051792 -0.410538 8,525 154 295 1152
2018-06-17 08:36:27 GMT 51.056030 -0.413769 8,425 155 287 1280
2018-06-17 08:36:24 GMT 51.059326 -0.416219 8,375 156 284 1280
2018-06-17 08:36:21 GMT 51.064774 -0.420004 8,275 159 274 1472
2018-06-17 08:36:17 GMT 51.069061 -0.422821 8,175 162 266 1472
2018-06-17 08:36:14 GMT 51.072693 -0.424904 8,150 164 264 1472
2018-06-17 08:36:11 GMT 51.075161 -0.426102 8,050 172 256 1792
2018-06-17 08:36:08 GMT 51.079815 -0.427475 7,975 176 253 2176
2018-06-17 08:36:04 GMT 51.085632 -0.427933 7,775 184 247 2688
2018-06-17 08:36:01 GMT 51.087387 -0.427724 7,625 192 242 2624
2018-06-17 08:35:57 GMT 51.092285 -0.426537 7,525 199 239 2496
2018-06-17 08:35:53 GMT 51.097786 -0.423737 7,300 204 236 2304
2018-06-17 08:35:50 GMT 51.099243 -0.422751 7,200 209 231 2240
2018-06-17 08:35:45 GMT 51.103977 -0.418930 6,800 222 220 2944
2018-06-17 08:35:42 GMT 51.107143 -0.415802 6,900 220 221 2880
2018-06-17 08:35:39 GMT 51.109634 -0.412952 6,675 225 218 3200
2018-06-17 08:35:35 GMT 51.112495 -0.409012 6,400 231 216 3456
2018-06-17 08:35:32 GMT 51.114578 -0.405381 6,300 233 217 3584
2018-06-17 08:35:29 GMT 51.116318 -0.401892 6,075 244 216 3968
2018-06-17 08:35:26 GMT 51.118378 -0.396102 5,975 248 216 4032
2018-06-17 08:35:22 GMT 51.119522 -0.391617 5,750 253 218 4032
2018-06-17 08:35:19 GMT 51.120438 -0.387120 5,400 257 220 3520
2018-06-17 08:35:14 GMT 51.121620 -0.379257 5,250 257 220 3328
2018-06-17 08:35:11 GMT 51.122314 -0.374426 4,850 257 220 3072
2018-06-17 08:35:08 GMT 51.123001 -0.369675 4,900 257 220 3200
2018-06-17 08:35:03 GMT 51.124420 -0.360322 4,475 257 218 2944
2018-06-17 08:34:59 GMT 51.125198 -0.355051 4,275 257 215 2880
2018-06-17 08:34:56 GMT 51.126068 -0.349410 4,275 257 217 2880
2018-06-17 08:34:53 GMT 51.126434 -0.346960 4,050 257 213 2944
2018-06-17 08:34:50 GMT 51.127205 -0.341644 3,925 257 212 3072
2018-06-17 08:34:47 GMT 51.127903 -0.337067 3,875 257 212 3136
2018-06-17 08:34:44 GMT 51.128742 -0.331421 3,625 258 212 1984
2018-06-17 08:34:41 GMT 51.129318 -0.327586 3,500 258 209 2752
2018-06-17 08:34:38 GMT 51.129997 -0.323105 3,400 257 209 3008
2018-06-17 08:34:35 GMT 51.130646 -0.318826 3,250 258 209 2752
2018-06-17 08:34:32 GMT 51.131561 -0.312516 3,050 258 212 2368
2018-06-17 08:34:27 GMT 51.132374 -0.306549 2,900 258 213 1856
2018-06-17 08:34:24 GMT 51.133026 -0.302124 2,700 258 213 1856
2018-06-17 08:34:17 GMT 51.134655 -0.290527 2,600 258 213 1920
2018-06-17 08:34:14 GMT 51.135269 -0.286016 2,500 258 209 2176
2018-06-17 08:34:08 GMT 51.136608 -0.276031 2,350 259 203 832
2018-06-17 08:34:05 GMT 51.136841 -0.273895 2,325 260 190 896
2018-06-17 08:34:02 GMT 51.137283 -0.270279 2,300 260 190 896
2018-06-17 08:33:57 GMT 51.138470 -0.260315 2,150 259 180 1280
2018-06-17 08:33:54 GMT 51.138702 -0.258401 2,125 259 180 1344
2018-06-17 08:33:51 GMT 51.139217 -0.254440 2,050 258 171 1536
2018-06-17 08:33:43 GMT 51.140533 -0.244520 1,850 258 166 1408
2018-06-17 08:33:40 GMT 51.140984 -0.241089 1,775 258 164 1344
2018-06-17 08:33:33 GMT 51.142101 -0.232925 1,525 258 145 2432
2018-06-17 08:33:22 GMT 51.143684 -0.221329 1,225 258 145 2432
2018-06-17 08:33:19 GMT 51.144196 -0.217648 1,175 258 145 2496
2018-06-17 08:33:16 GMT 51.144569 -0.214920 1,050 257 145 2816
2018-06-17 08:33:12 GMT 51.145176 -0.210648 850 257 146 2624
2018-06-17 08:33:01 GMT 51.146851 -0.199684 375 258 151 2752
2018-06-17 08:32:45 GMT 51.149231 -0.182239 100 258 129 0
2018-06-17 08:32:19 GMT 51.151119 -0.168711 0 255 10
2018-06-17 08:32:06 GMT 51.151215 -0.168152 0 258 6
2018-06-17 08:31:48 GMT 51.151543 -0.167820 0 168 13
2018-06-17 08:31:32 GMT 51.152298 -0.168080 0 165 5
We lost coverage of the aircraft here for a total of 5 minutes
2018-06-17 08:26:31 GMT 51.152779 -0.168265 0 163 0
2018-06-17 08:26:31 GMT 51.152779 -0.168265 0 163 0
2018-06-17 08:26:31 GMT 51.152779 -0.168265 0 163 0
2018-06-17 08:26:31 GMT 51.152779 -0.168265 0 163 0
2018-06-17 08:26:22 GMT 51.152786 -0.168266 0 163 0
2018-06-17 08:26:13 GMT 51.152790 -0.168265 0 163 0
2018-06-17 08:26:06 GMT 51.152832 -0.168247 0 146 5
2018-06-17 08:25:43 GMT 51.152950 -0.168803 0 78 4
2018-06-17 08:25:37 GMT 51.152927 -0.168989 0 78 3
2018-06-17 08:23:50 GMT 51.152893 -0.169249 0 78 1
2018-06-17 08:21:53 GMT 51.152706 -0.170612 0 78 3
2018-06-17 08:21:44 GMT 51.152676 -0.170789 0 78 5
2018-06-17 08:21:11 GMT 51.152355 -0.173130 0 78 20
2018-06-17 08:21:00 GMT 51.152134 -0.174713 0 78 20
2018-06-17 08:20:42 GMT 51.151817 -0.177006 0 78 17
2018-06-17 08:20:28 GMT 51.151600 -0.178642 0 75 14
2018-06-17 08:20:01 GMT 51.151646 -0.180664 0 165 11
2018-06-17 08:19:45 GMT 51.152565 -0.180988 0 165 15
2018-06-17 08:19:33 GMT 51.153236 -0.181219 0 168 9
2018-06-17 08:19:09 GMT 51.154175 -0.181553 0 168 10
2018-06-17 08:18:55 GMT 51.154823 -0.181789 0 171 10
2018-06-17 08:18:45 GMT 51.155228 -0.181813 0 210 10
2018-06-17 08:18:34 GMT 51.155647 -0.181370 0 213 11
2018-06-17 08:18:22 GMT 51.156132 -0.180885 0 213 11
2018-06-17 08:18:16 GMT 51.156384 -0.180606 0 210 12
2018-06-17 08:18:04 GMT 51.156967 -0.180291 0 168 13
2018-06-17 08:17:49 GMT 51.157791 -0.180569 0 168 13
2018-06-17 08:17:45 GMT 51.158054 -0.180662 0 168 12
2018-06-17 08:17:32 GMT 51.158733 -0.180893 0 168 12
2018-06-17 08:17:15 GMT 51.159599 -0.181200 0 168 12
2018-06-17 08:17:10 GMT 51.159885 -0.181293 0 168 11
2018-06-17 08:17:02 GMT 51.160252 -0.181423 0 168 9

Making use of Plane Finder data

You are free to use the raw flight data, aircraft information and images provided in this report for your own purposes provided the data is correctly attributed to Plane Finder. We ask that you please credit Plane Finder and link to planefinder.net in close proximity to the content.

Optionally one of the following logos (no smaller then 150x24px) can be used and must link to planefinder.net

Embedding the Plane Finder map

You are welcome to embed the Plane Finder playback map on your website to offer visitors a more interactive experience. We suggest using the following HTML code:

<iframe src="//planefinder.net/data/report/U28191-G-EZOZ-7700-squawk-2018-06-17/map" width="800" height="600" seamless="seamless"></iframe>

Where our data comes from

Plane Finder has a global network of data feeds and antenna radars that receive data broadcast directly from aircraft. The primary technologies used are ADS-B and MLAT. We also show feeds from the FAA and a FLARM glider feed.

Click here to find out more about the Plane Finder network.

How we collect our data